Time;durP1;ratioP1;P1;durP2;ratioP2;P2;SDS_P1;SDS_P2;PMS_P1;PMS_P2;Temp;Humidity;BMP_temperature;BMP_pressure;BME280_temperature;BME280_humidity;BME280_pressure;Samples;Min_cycle;Max_cycle;Signal;HPM_P1;HPM_P2
2022/04/26 03:37:24;;;;;;;;;40.00;34.75;;;;;;;;5101103;27;45300;-78
2022/04/26 03:39:49;;;;;;;;;42.25;36.75;;;;;;;;5101264;27;45274;-78
2022/04/26 03:42:15;;;;;;;;;37.50;33.25;;;;;;;;5097278;27;45680;-78
2022/04/26 03:44:40;;;;;;;;;37.25;32.75;;;;;;;;5091445;27;45470;-77
2022/04/26 03:47:05;;;;;;;;;42.25;34.75;;;;;;;;5089422;27;45402;-77
2022/04/26 03:49:31;;;;;;;;;36.00;34.25;;;;;;;;5079650;27;48093;-77
2022/04/26 03:51:56;;;;;;;;;38.75;34.00;;;;;;;;5081074;28;45299;-78
2022/04/26 03:54:22;;;;;;;;;42.00;36.25;;;;;;;;5079555;28;45339;-77
2022/04/26 03:56:47;;;;;;;;;42.75;35.25;;;;;;;;5080542;28;45405;-77
2022/04/26 03:59:13;;;;;;;;;43.75;36.00;;;;;;;;5080394;28;45410;-79
2022/04/26 04:01:38;;;;;;;;;39.50;36.25;;;;;;;;5084608;27;45544;-77
2022/04/26 04:04:03;;;;;;;;;45.50;38.50;;;;;;;;5096861;27;45290;-77
2022/04/26 04:06:29;;;;;;;;;47.75;37.75;;;;;;;;5099549;27;46242;-76
2022/04/26 04:08:54;;;;;;;;;45.25;37.00;;;;;;;;5099308;27;48243;-77
2022/04/26 04:11:19;;;;;;;;;40.75;35.50;;;;;;;;5099784;27;45874;-77
2022/04/26 04:13:44;;;;;;;;;43.25;36.75;;;;;;;;5100942;27;45669;-78
2022/04/26 04:16:09;;;;;;;;;42.75;36.25;;;;;;;;5113105;27;46197;-79
2022/04/26 04:21:19;;;;;;;;;47.00;38.75;;;;;;;;5121352;27;45501;-81
2022/04/26 04:23:44;;;;;;;;;41.00;35.00;;;;;;;;5121063;27;45393;-78
2022/04/26 04:26:10;;;;;;;;;44.75;38.00;;;;;;;;5121547;27;45336;-78
2022/04/26 04:28:35;;;;;;;;;42.50;37.00;;;;;;;;5113854;27;47053;-80
2022/04/26 04:31:01;;;;;;;;;43.25;37.75;;;;;;;;5079990;28;45623;-75
2022/04/26 04:33:26;;;;;;;;;45.25;35.75;;;;;;;;5079294;28;45414;-78
2022/04/26 04:35:51;;;;;;;;;42.75;36.75;;;;;;;;5083280;27;45335;-78
2022/04/26 04:38:16;;;;;;;;;42.00;34.50;;;;;;;;5093578;27;45490;-77
2022/04/26 04:40:42;;;;;;;;;45.25;37.25;;;;;;;;5099480;27;45395;-78
2022/04/26 04:43:08;;;;;;;;;41.25;35.75;;;;;;;;5092279;27;45321;-77
2022/04/26 04:45:33;;;;;;;;;46.00;38.50;;;;;;;;5080288;27;45487;-77
2022/04/26 04:47:58;;;;;;;;;47.50;39.00;;;;;;;;5080129;27;46131;-70
2022/04/26 04:50:23;;;;;;;;;47.00;38.25;;;;;;;;5080254;27;45254;-74
2022/04/26 04:52:49;;;;;;;;;50.75;43.25;;;;;;;;5079965;27;45352;-73
2022/04/26 04:55:14;;;;;;;;;47.00;38.50;;;;;;;;5079587;27;45488;-81
2022/04/26 04:57:39;;;;;;;;;50.25;39.00;;;;;;;;5100972;27;46772;-81
2022/04/26 05:00:05;;;;;;;;;45.75;36.75;;;;;;;;5100593;27;45292;-81
2022/04/26 05:02:30;;;;;;;;;51.25;41.75;;;;;;;;5081698;28;45217;-80
2022/04/26 05:04:55;;;;;;;;;50.50;41.75;;;;;;;;5084013;27;45354;-82
2022/04/26 05:07:20;;;;;;;;;43.25;36.50;;;;;;;;5084571;28;45358;-79
2022/04/26 05:09:45;;;;;;;;;49.75;41.00;;;;;;;;5085003;28;45424;-81
2022/04/26 05:12:11;;;;;;;;;47.25;38.25;;;;;;;;5109636;27;45297;-82
2022/04/26 05:14:36;;;;;;;;;46.00;39.50;;;;;;;;5107814;27;46078;-82
2022/04/26 05:17:01;;;;;;;;;48.50;39.00;;;;;;;;5132156;27;45326;-80
2022/04/26 05:19:26;;;;;;;;;51.75;42.25;;;;;;;;5134576;27;45263;-81
2022/04/26 05:21:52;;;;;;;;;45.75;38.25;;;;;;;;5135537;27;45280;-81
2022/04/26 05:27:01;;;;;;;;;54.75;45.00;;;;;;;;5118351;27;45454;-76
2022/04/26 05:29:26;;;;;;;;;53.50;43.75;;;;;;;;5118492;27;45343;-77
2022/04/26 05:31:51;;;;;;;;;50.00;41.25;;;;;;;;5118615;27;45375;-76
2022/04/26 05:34:16;;;;;;;;;55.50;43.50;;;;;;;;5119639;27;45416;-77
2022/04/26 05:36:42;;;;;;;;;52.00;39.00;;;;;;;;5118931;27;48207;-77
2022/04/26 05:39:07;;;;;;;;;51.00;41.00;;;;;;;;5120286;27;45338;-76
2022/04/26 05:41:32;;;;;;;;;50.75;41.25;;;;;;;;5119068;27;45370;-77
2022/04/26 05:43:57;;;;;;;;;54.75;45.00;;;;;;;;5120778;27;45487;-77
2022/04/26 05:46:22;;;;;;;;;49.00;40.00;;;;;;;;5118962;27;48382;-77
2022/04/26 05:48:48;;;;;;;;;52.00;44.25;;;;;;;;5122709;27;45262;-78
2022/04/26 05:51:13;;;;;;;;;58.00;46.50;;;;;;;;5124287;27;45329;-77
2022/04/26 05:53:38;;;;;;;;;56.00;46.00;;;;;;;;5123830;27;45430;-78
2022/04/26 05:56:08;;;;;;;;;61.25;46.50;;;;;;;;5124038;27;46282;-77
2022/04/26 05:58:34;;;;;;;;;53.00;42.00;;;;;;;;5124089;27;45143;-77
2022/04/26 06:00:59;;;;;;;;;58.00;47.25;;;;;;;;5124033;27;45242;-77
2022/04/26 06:03:24;;;;;;;;;58.75;46.00;;;;;;;;5122554;27;46997;-77
2022/04/26 06:05:49;;;;;;;;;62.00;48.50;;;;;;;;5122320;27;47213;-77
2022/04/26 06:08:15;;;;;;;;;56.75;45.75;;;;;;;;5123657;27;45443;-77
2022/04/26 06:10:40;;;;;;;;;51.00;44.00;;;;;;;;5123868;27;45427;-77
2022/04/26 06:13:06;;;;;;;;;54.50;45.75;;;;;;;;5123851;27;45383;-77
2022/04/26 06:15:31;;;;;;;;;56.50;46.50;;;;;;;;5113790;27;48144;-77
2022/04/26 06:17:56;;;;;;;;;57.50;46.75;;;;;;;;5101535;27;45487;-77
2022/04/26 06:20:23;;;;;;;;;58.00;46.75;;;;;;;;5103356;27;45356;-77
2022/04/26 06:22:48;;;;;;;;;58.50;47.25;;;;;;;;5102769;27;45298;-77
2022/04/26 06:25:14;;;;;;;;;61.25;48.00;;;;;;;;5102576;27;45272;-77
2022/04/26 06:27:39;;;;;;;;;63.75;50.50;;;;;;;;5101608;27;45312;-77
2022/04/26 06:30:04;;;;;;;;;59.25;48.00;;;;;;;;5103055;27;45440;-77
2022/04/26 06:32:30;;;;;;;;;59.25;47.00;;;;;;;;5102364;27;45304;-77
2022/04/26 06:34:55;;;;;;;;;64.50;51.25;;;;;;;;5102494;27;46437;-77
2022/04/26 06:37:23;;;;;;;;;61.00;48.50;;;;;;;;5102778;27;45341;-78
2022/04/26 06:39:48;;;;;;;;;56.75;47.00;;;;;;;;5101189;27;45372;-77
2022/04/26 06:42:13;;;;;;;;;63.50;49.75;;;;;;;;5102341;27;45643;-77
2022/04/26 06:44:38;;;;;;;;;64.00;50.00;;;;;;;;5102718;27;45313;-77
2022/04/26 06:47:04;;;;;;;;;63.00;50.25;;;;;;;;5102511;27;45396;-77
2022/04/26 06:49:29;;;;;;;;;65.00;50.00;;;;;;;;5102552;27;45244;-77
2022/04/26 06:51:54;;;;;;;;;66.25;51.25;;;;;;;;5102308;27;45521;-77
2022/04/26 06:54:19;;;;;;;;;63.00;50.25;;;;;;;;5102217;27;46423;-77
2022/04/26 06:56:46;;;;;;;;;65.25;51.00;;;;;;;;5102462;27;45326;-77
2022/04/26 06:59:11;;;;;;;;;72.00;60.00;;;;;;;;5102163;27;45356;-77
2022/04/26 07:01:36;;;;;;;;;76.25;64.00;;;;;;;;5102107;27;45316;-77
2022/04/26 07:04:02;;;;;;;;;63.00;50.25;;;;;;;;5100823;27;47509;-77
2022/04/26 07:06:27;;;;;;;;;65.50;52.25;;;;;;;;5102115;27;45334;-78
2022/04/26 07:08:52;;;;;;;;;61.50;49.50;;;;;;;;5102341;27;45407;-78
2022/04/26 07:11:18;;;;;;;;;62.75;50.50;;;;;;;;5102185;27;45627;-77
2022/04/26 07:13:43;;;;;;;;;62.75;49.25;;;;;;;;5102081;27;45444;-77
2022/04/26 07:16:09;;;;;;;;;65.50;52.50;;;;;;;;5114135;27;45410;-77
2022/04/26 07:18:34;;;;;;;;;61.75;49.50;;;;;;;;5122859;27;45356;-77
2022/04/26 07:20:59;;;;;;;;;65.50;51.00;;;;;;;;5122578;27;45262;-76
2022/04/26 07:23:25;;;;;;;;;67.25;51.75;;;;;;;;5122242;27;46224;-77
2022/04/26 07:25:52;;;;;;;;;62.00;49.25;;;;;;;;5122448;27;45219;-78
2022/04/26 07:28:19;;;;;;;;;68.00;54.75;;;;;;;;5122825;27;45348;-78
2022/04/26 07:30:44;;;;;;;;;67.00;51.75;;;;;;;;5120943;27;46168;-77
2022/04/26 07:35:54;;;;;;;;;62.25;50.00;;;;;;;;5122331;27;45181;-77
2022/04/26 07:38:19;;;;;;;;;65.75;52.25;;;;;;;;5122172;27;45282;-76
2022/04/26 07:40:44;;;;;;;;;63.25;50.50;;;;;;;;5122495;27;45202;-77
2022/04/26 07:43:09;;;;;;;;;64.25;50.50;;;;;;;;5122256;27;46399;-77
2022/04/26 07:45:38;;;;;;;;;62.25;49.50;;;;;;;;5122300;27;45221;-78
2022/04/26 07:48:07;;;;;;;;;65.75;51.50;;;;;;;;5121023;27;45280;-78
2022/04/26 07:50:35;;;;;;;;;61.50;48.00;;;;;;;;5122388;27;45229;-77
2022/04/26 07:53:02;;;;;;;;;59.25;46.75;;;;;;;;5121823;27;46299;-77
2022/04/26 07:55:28;;;;;;;;;64.00;49.75;;;;;;;;5122073;27;45364;-77
2022/04/26 07:57:53;;;;;;;;;61.00;50.00;;;;;;;;5122146;27;45379;-78
2022/04/26 08:00:19;;;;;;;;;62.75;50.00;;;;;;;;5120477;27;46291;-78
2022/04/26 08:02:44;;;;;;;;;62.50;50.00;;;;;;;;5120702;27;48249;-78
2022/04/26 08:05:09;;;;;;;;;57.75;45.50;;;;;;;;5122002;27;45311;-78
2022/04/26 08:07:39;;;;;;;;;60.50;48.25;;;;;;;;5120795;27;45375;-78
2022/04/26 08:10:06;;;;;;;;;61.75;49.00;;;;;;;;5121704;27;45246;-78
2022/04/26 08:12:31;;;;;;;;;55.50;43.50;;;;;;;;5120398;27;46037;-78
2022/04/26 08:14:56;;;;;;;;;60.25;48.00;;;;;;;;5118323;27;45520;-78
2022/04/26 08:17:21;;;;;;;;;62.75;50.00;;;;;;;;5101240;27;45466;-78
2022/04/26 08:19:46;;;;;;;;;59.75;47.50;;;;;;;;5101113;27;45570;-78
2022/04/26 08:22:12;;;;;;;;;57.25;45.75;;;;;;;;5100855;27;46464;-78
2022/04/26 08:27:25;;;;;;;;;62.25;49.75;;;;;;;;5101224;27;45337;-78
2022/04/26 08:29:53;;;;;;;;;60.00;46.25;;;;;;;;5100702;27;45473;-78
2022/04/26 08:32:18;;;;;;;;;61.00;50.00;;;;;;;;5100604;27;45273;-78
2022/04/26 08:34:44;;;;;;;;;66.00;50.75;;;;;;;;5099168;27;45305;-78
2022/04/26 08:37:09;;;;;;;;;61.50;49.75;;;;;;;;5101070;27;45250;-78
2022/04/26 08:39:34;;;;;;;;;66.50;51.50;;;;;;;;5099145;27;47078;-78
2022/04/26 08:42:00;;;;;;;;;56.75;46.25;;;;;;;;5099134;27;47504;-77
2022/04/26 08:44:27;;;;;;;;;59.25;48.00;;;;;;;;5100740;27;45396;-78
2022/04/26 08:52:20;;;;;;;;;59.25;48.00;;;;;;;;5100332;27;45622;-78
2022/04/26 08:54:46;;;;;;;;;57.50;46.75;;;;;;;;5100281;27;45291;-78
2022/04/26 08:57:13;;;;;;;;;57.25;45.00;;;;;;;;5099297;27;45340;-77
2022/04/26 08:59:51;;;;;;;;;59.75;47.75;;;;;;;;5100520;27;45364;-78
2022/04/26 09:02:21;;;;;;;;;60.50;48.75;;;;;;;;5098990;27;47024;-77
2022/04/26 09:04:50;;;;;;;;;56.00;45.75;;;;;;;;5100509;27;45425;-78
2022/04/26 09:07:37;;;;;;;;;62.00;49.00;;;;;;;;5100502;27;45397;-78
2022/04/26 09:10:12;;;;;;;;;62.25;49.00;;;;;;;;5098631;27;46846;-78
2022/04/26 09:12:56;;;;;;;;;60.75;49.00;;;;;;;;5098685;27;46154;-77
2022/04/26 09:15:22;;;;;;;;;60.00;47.75;;;;;;;;5107124;27;45221;-78
2022/04/26 09:17:47;;;;;;;;;62.75;49.75;;;;;;;;5120837;27;45297;-78
2022/04/26 09:20:12;;;;;;;;;56.75;47.00;;;;;;;;5119422;27;46450;-78
2022/04/26 09:22:39;;;;;;;;;63.25;49.25;;;;;;;;5120171;27;46010;-78
2022/04/26 09:25:05;;;;;;;;;60.25;49.50;;;;;;;;5120507;27;45374;-78
2022/04/26 09:27:34;;;;;;;;;59.25;48.00;;;;;;;;5119412;27;45356;-78
2022/04/26 09:29:59;;;;;;;;;59.00;47.75;;;;;;;;5120594;27;45328;-78
2022/04/26 09:32:24;;;;;;;;;59.25;46.75;;;;;;;;5118777;27;47211;-78
2022/04/26 09:34:50;;;;;;;;;59.50;47.00;;;;;;;;5102143;27;45660;-78
2022/04/26 09:37:16;;;;;;;;;60.00;46.25;;;;;;;;5120684;27;45320;-77
2022/04/26 09:39:58;;;;;;;;;62.00;48.75;;;;;;;;5120249;27;45445;-78
2022/04/26 09:42:31;;;;;;;;;55.00;45.25;;;;;;;;5120286;27;45330;-78
2022/04/26 09:45:06;;;;;;;;;60.25;48.00;;;;;;;;5120386;27;45347;-78
2022/04/26 09:47:35;;;;;;;;;60.75;49.25;;;;;;;;5120497;27;45298;-79
2022/04/26 09:50:04;;;;;;;;;60.50;48.00;;;;;;;;5120347;27;45326;-78
2022/04/26 09:52:29;;;;;;;;;61.75;48.25;;;;;;;;5120126;27;45344;-77
2022/04/26 09:54:54;;;;;;;;;62.50;49.50;;;;;;;;5120136;27;45268;-80
2022/04/26 09:57:20;;;;;;;;;53.25;42.75;;;;;;;;5120626;27;45339;-78
2022/04/26 09:59:46;;;;;;;;;60.50;49.50;;;;;;;;5120470;27;45245;-78
2022/04/26 10:02:13;;;;;;;;;57.25;45.50;;;;;;;;5120303;27;45317;-78
2022/04/26 10:04:47;;;;;;;;;61.50;48.75;;;;;;;;5118804;27;45351;-78
2022/04/26 10:07:14;;;;;;;;;62.00;48.50;;;;;;;;5120200;27;45292;-79
2022/04/26 10:09:40;;;;;;;;;60.25;48.00;;;;;;;;5119744;27;45652;-78
2022/04/26 10:12:05;;;;;;;;;59.25;47.00;;;;;;;;5120106;27;46795;-78
2022/04/26 10:14:31;;;;;;;;;58.00;46.50;;;;;;;;5118738;27;45335;-77
2022/04/26 10:16:57;;;;;;;;;57.50;45.25;;;;;;;;5099677;27;45237;-78
2022/04/26 10:19:42;;;;;;;;;55.00;45.00;;;;;;;;5099492;27;45322;-78
2022/04/26 10:22:08;;;;;;;;;56.00;46.50;;;;;;;;5099133;27;45409;-79
2022/04/26 10:24:34;;;;;;;;;54.75;44.00;;;;;;;;5099211;27;45258;-78
2022/04/26 10:27:23;;;;;;;;;57.00;46.00;;;;;;;;5099519;27;45275;-79
2022/04/26 10:29:48;;;;;;;;;56.75;46.50;;;;;;;;5097879;27;46548;-78
2022/04/26 10:32:34;;;;;;;;;51.75;43.00;;;;;;;;5099089;27;45440;-78
2022/04/26 10:35:29;;;;;;;;;56.50;46.25;;;;;;;;5098800;27;45360;-78
2022/04/26 10:38:15;;;;;;;;;51.50;42.50;;;;;;;;5097335;27;45354;-77
2022/04/26 10:40:59;;;;;;;;;57.25;44.75;;;;;;;;5101279;27;45496;-77
2022/04/26 10:43:24;;;;;;;;;57.00;46.00;;;;;;;;5102415;27;45377;-78
2022/04/26 10:46:09;;;;;;;;;52.75;44.50;;;;;;;;5102600;27;45315;-78
2022/04/26 10:48:34;;;;;;;;;52.00;43.00;;;;;;;;5102785;27;45310;-77
2022/04/26 10:51:19;;;;;;;;;53.00;43.75;;;;;;;;5100819;27;46262;-77
2022/04/26 10:53:49;;;;;;;;;53.00;43.50;;;;;;;;5100602;27;46029;-78
2022/04/26 10:56:14;;;;;;;;;59.00;46.50;;;;;;;;5102311;27;45345;-78
2022/04/26 10:58:49;;;;;;;;;54.25;45.50;;;;;;;;5102538;27;45295;-79
2022/04/26 11:01:14;;;;;;;;;49.50;41.75;;;;;;;;5083857;27;47162;-78
2022/04/26 11:03:52;;;;;;;;;49.00;42.00;;;;;;;;5101961;27;46153;-78
2022/04/26 11:06:37;;;;;;;;;51.00;42.00;;;;;;;;5102283;27;45323;-77
2022/04/26 11:09:07;;;;;;;;;51.25;42.50;;;;;;;;5102142;27;45326;-78
2022/04/26 11:11:48;;;;;;;;;54.00;43.50;;;;;;;;5102243;27;45450;-78
2022/04/26 11:14:14;;;;;;;;;67.25;52.75;;;;;;;;5101952;27;46009;-78
2022/04/26 11:16:59;;;;;;;;;48.25;39.25;;;;;;;;5119982;27;45361;-77
2022/04/26 11:19:27;;;;;;;;;54.25;44.25;;;;;;;;5122879;27;45471;-78
2022/04/26 11:21:53;;;;;;;;;55.25;43.75;;;;;;;;5122488;27;45297;-78
2022/04/26 11:29:52;;;;;;;;;53.50;44.00;;;;;;;;5122535;27;45371;-77
2022/04/26 11:32:27;;;;;;;;;52.25;42.25;;;;;;;;5120985;27;46313;-80
2022/04/26 11:34:53;;;;;;;;;48.75;39.50;;;;;;;;5120715;27;47747;-78
2022/04/26 11:37:18;;;;;;;;;49.00;41.00;;;;;;;;5122204;27;45326;-79
2022/04/26 11:39:43;;;;;;;;;48.25;39.00;;;;;;;;5122258;27;45326;-78
2022/04/26 11:42:09;;;;;;;;;46.25;38.00;;;;;;;;5122371;27;45390;-78
2022/04/26 11:44:35;;;;;;;;;53.00;44.25;;;;;;;;5122302;27;46013;-80
2022/04/26 11:47:00;;;;;;;;;50.50;40.00;;;;;;;;5122091;27;45377;-79
2022/04/26 11:49:38;;;;;;;;;50.25;42.25;;;;;;;;5121007;27;45347;-78
2022/04/26 11:52:04;;;;;;;;;49.50;40.25;;;;;;;;5120549;27;46360;-77
2022/04/26 11:54:36;;;;;;;;;59.25;46.25;;;;;;;;5120419;27;47383;-77
2022/04/26 11:57:02;;;;;;;;;53.00;42.00;;;;;;;;5122079;27;45288;-78
2022/04/26 11:59:27;;;;;;;;;52.25;44.00;;;;;;;;5120906;27;45241;-77
2022/04/26 12:01:53;;;;;;;;;52.67;42.67;;;;;;;;5122065;27;45352;-79
2022/04/26 12:04:18;;;;;;;;;52.50;42.50;;;;;;;;5122057;27;45381;-78
2022/04/26 12:06:44;;;;;;;;;56.00;45.50;;;;;;;;5121973;27;45203;-78
2022/04/26 12:09:12;;;;;;;;;50.50;42.00;;;;;;;;5121836;27;45498;-78
2022/04/26 12:11:38;;;;;;;;;51.25;42.25;;;;;;;;5121763;27;45392;-79
2022/04/26 12:14:05;;;;;;;;;46.00;38.75;;;;;;;;5120331;27;48302;-77
2022/04/26 12:16:31;;;;;;;;;46.75;39.25;;;;;;;;5104922;27;45386;-80
2022/04/26 12:18:57;;;;;;;;;42.50;35.25;;;;;;;;5101314;27;45406;-78
2022/04/26 12:21:24;;;;;;;;;49.50;40.50;;;;;;;;5100916;27;45272;-77
2022/04/26 12:24:09;;;;;;;;;54.50;44.75;;;;;;;;5100686;27;45222;-77
2022/04/26 12:26:34;;;;;;;;;44.33;37.00;;;;;;;;5101030;27;45209;-78
2022/04/26 12:29:00;;;;;;;;;44.67;36.67;;;;;;;;5101127;27;45232;-79
2022/04/26 12:31:29;;;;;;;;;42.25;36.50;;;;;;;;5099271;27;46357;-78
2022/04/26 12:34:14;;;;;;;;;46.33;37.00;;;;;;;;5100725;27;45381;-78
2022/04/26 12:36:58;;;;;;;;;48.00;39.75;;;;;;;;5100634;27;45362;-78
2022/04/26 12:39:28;;;;;;;;;46.75;38.50;;;;;;;;5099392;27;45370;-77
2022/04/26 12:41:56;;;;;;;;;44.25;38.50;;;;;;;;5099404;27;47630;-80
2022/04/26 12:44:22;;;;;;;;;39.00;34.75;;;;;;;;5100742;27;45412;-77
2022/04/26 12:50:27;;;;;;;;;44.50;36.00;;;;;;;;5100565;27;45362;-78
2022/04/26 12:52:29;;;;;;;;;43.67;36.33;;;;;;;;5100311;27;45318;-78
2022/04/26 12:54:55;;;;;;;;;46.00;39.50;;;;;;;;5098952;27;47328;-78
2022/04/26 12:57:20;;;;;;;;;45.75;37.50;;;;;;;;5099827;27;45377;-79
2022/04/26 12:59:46;;;;;;;;;38.33;35.00;;;;;;;;5099238;27;45538;-78
2022/04/26 13:02:12;;;;;;;;;46.67;39.00;;;;;;;;5100359;27;45466;-78
2022/04/26 13:04:38;;;;;;;;;64.75;52.50;;;;;;;;5100257;27;45332;-78
2022/04/26 13:07:03;;;;;;;;;47.33;37.67;;;;;;;;5098855;27;45292;-78
2022/04/26 13:09:28;;;;;;;;;37.00;33.33;;;;;;;;5098948;27;45304;-78
2022/04/26 13:11:54;;;;;;;;;43.67;37.00;;;;;;;;5098941;27;46399;-79
2022/04/26 13:14:19;;;;;;;;;43.67;37.00;;;;;;;;5100388;27;45206;-79
2022/04/26 13:16:44;;;;;;;;;31.33;30.00;;;;;;;;5118968;27;45204;-78
2022/04/26 13:19:10;;;;;;;;;46.33;39.00;;;;;;;;5121029;27;45383;-78
2022/04/26 13:21:35;;;;;;;;;37.67;33.67;;;;;;;;5119189;27;46135;-78
2022/04/26 13:24:01;;;;;;;;;39.67;35.33;;;;;;;;5120382;27;45379;-78
2022/04/26 13:26:26;;;;;;;;;36.67;33.00;;;;;;;;5120560;27;45419;-78
2022/04/26 13:28:52;;;;;;;;;36.33;31.67;;;;;;;;5120982;27;45316;-78
2022/04/26 13:31:17;;;;;;;;;38.67;34.00;;;;;;;;5119070;27;46146;-79
2022/04/26 13:33:45;;;;;;;;;44.67;36.33;;;;;;;;5120408;27;45434;-78
2022/04/26 13:36:10;;;;;;;;;38.33;32.67;;;;;;;;5120636;27;45328;-77
2022/04/26 13:38:35;;;;;;;;;39.00;33.67;;;;;;;;5120357;27;45354;-78
2022/04/26 13:41:00;;;;;;;;;30.67;30.00;;;;;;;;5120605;27;45570;-78
2022/04/26 13:43:26;;;;;;;;;42.00;34.50;;;;;;;;5119105;27;46805;-78
2022/04/26 13:45:51;;;;;;;;;31.00;28.67;;;;;;;;5119088;27;45384;-78
2022/04/26 13:48:17;;;;;;;;;29.00;28.33;;;;;;;;5120661;27;45352;-79
2022/04/26 13:50:43;;;;;;;;;34.67;32.00;;;;;;;;5120580;27;45227;-79
2022/04/26 13:53:08;;;;;;;;;31.67;28.67;;;;;;;;5120078;27;45707;-80
2022/04/26 13:55:33;;;;;;;;;30.67;29.00;;;;;;;;5120453;27;45308;-79
2022/04/26 13:57:59;;;;;;;;;29.00;28.33;;;;;;;;5120696;27;45259;-80
2022/04/26 14:00:24;;;;;;;;;28.67;26.67;;;;;;;;5120290;27;45329;-79
2022/04/26 14:02:50;;;;;;;;;33.33;30.67;;;;;;;;5120223;27;45231;-78
2022/04/26 14:05:16;;;;;;;;;34.00;30.67;;;;;;;;5120248;27;45266;-78
2022/04/26 14:07:41;;;;;;;;;31.67;29.33;;;;;;;;5118844;27;45641;-77
2022/04/26 14:10:07;;;;;;;;;37.67;33.00;;;;;;;;5121162;27;46425;-77
2022/04/26 14:12:34;;;;;;;;;25.33;25.33;;;;;;;;5123945;27;45505;-78
2022/04/26 14:23:11;;;;;;;;;29.67;28.33;;;;;;;;5102390;27;45270;-78
2022/04/26 14:25:38;;;;;;;;;27.67;26.00;;;;;;;;5101679;27;45572;-78
2022/04/26 14:28:03;;;;;;;;;24.00;24.00;;;;;;;;5101723;27;45281;-77
2022/04/26 14:30:29;;;;;;;;;21.00;20.00;;;;;;;;5101237;27;47307;-79
2022/04/26 14:32:54;;;;;;;;;27.00;26.00;;;;;;;;5101468;27;47255;-79
2022/04/26 14:35:19;;;;;;;;;20.00;20.00;;;;;;;;5102734;27;45310;-78
2022/04/26 14:37:45;;;;;;;;;39.67;34.00;;;;;;;;5101323;27;45415;-78
2022/04/26 14:40:10;;;;;;;;;47.25;39.50;;;;;;;;5102571;27;45460;-78
2022/04/26 14:42:37;;;;;;;;;26.33;24.00;;;;;;;;5101265;27;47351;-78
2022/04/26 14:45:02;;;;;;;;;22.67;22.00;;;;;;;;5102657;27;45145;-77
2022/04/26 14:47:28;;;;;;;;;21.67;20.67;;;;;;;;5102815;27;45318;-78
2022/04/26 14:49:54;;;;;;;;;20.00;20.00;;;;;;;;5102670;27;45247;-77
2022/04/26 14:52:21;;;;;;;;;21.33;21.33;;;;;;;;5100849;27;48082;-78
2022/04/26 14:54:46;;;;;;;;;22.00;22.00;;;;;;;;5102277;27;45350;-77
2022/04/26 14:57:12;;;;;;;;;43.33;35.33;;;;;;;;5102468;27;45370;-78
2022/04/26 14:59:46;;;;;;;;;27.67;24.33;;;;;;;;5101014;27;46010;-78
2022/04/26 15:02:11;;;;;;;;;21.33;19.33;;;;;;;;5102183;27;46188;-78
2022/04/26 15:04:37;;;;;;;;;21.67;21.67;;;;;;;;5102356;27;45409;-77
2022/04/26 15:07:02;;;;;;;;;24.33;24.00;;;;;;;;5102343;27;45491;-76
2022/04/26 15:09:42;;;;;;;;;20.33;20.00;;;;;;;;5102127;27;45323;-77
2022/04/26 15:17:55;;;;;;;;;20.33;19.67;;;;;;;;5100063;27;45344;-77
2022/04/26 15:20:21;;;;;;;;;20.00;17.67;;;;;;;;5112451;27;45653;-78
2022/04/26 15:22:47;;;;;;;;;15.33;15.33;;;;;;;;5122184;27;45304;-78
2022/04/26 15:25:12;;;;;;;;;18.00;18.00;;;;;;;;5122996;27;45324;-78
2022/04/26 15:27:40;;;;;;;;;18.67;17.67;;;;;;;;5121470;27;45278;-78
2022/04/26 15:30:07;;;;;;;;;19.00;16.00;;;;;;;;5122520;27;45213;-77
2022/04/26 15:32:33;;;;;;;;;16.33;15.67;;;;;;;;5122204;27;46061;-79
2022/04/26 15:34:58;;;;;;;;;15.67;15.67;;;;;;;;5122361;27;45395;-78
2022/04/26 15:37:25;;;;;;;;;16.00;16.00;;;;;;;;5122616;27;45309;-78
2022/04/26 15:39:50;;;;;;;;;16.33;16.33;;;;;;;;5122258;27;45436;-77
2022/04/26 15:42:18;;;;;;;;;19.67;17.33;;;;;;;;5122073;27;45263;-77
2022/04/26 15:44:43;;;;;;;;;15.00;15.00;;;;;;;;5121044;27;45281;-78
2022/04/26 15:47:08;;;;;;;;;11.33;11.33;;;;;;;;5120978;27;45280;-77
2022/04/26 15:49:33;;;;;;;;;12.00;12.00;;;;;;;;5122380;27;45585;-78
2022/04/26 15:51:58;;;;;;;;;9.33;9.33;;;;;;;;5122117;27;45244;-80
2022/04/26 15:54:24;;;;;;;;;17.00;16.00;;;;;;;;5120770;27;46075;-78
2022/04/26 15:56:49;;;;;;;;;14.33;13.67;;;;;;;;5122380;27;45213;-78
2022/04/26 15:59:14;;;;;;;;;14.00;14.00;;;;;;;;5120876;27;46167;-78
2022/04/26 16:01:40;;;;;;;;;14.00;14.00;;;;;;;;5122164;27;46128;-79
2022/04/26 16:04:05;;;;;;;;;14.00;14.00;;;;;;;;5121902;27;45184;-79
2022/04/26 16:06:31;;;;;;;;;15.67;13.33;;;;;;;;5122194;27;45230;-79
2022/04/26 16:20:28;;;;;;;;;17.67;15.67;;;;;;;;5121802;27;45421;-78
2022/04/26 16:22:37;;;;;;;;;15.33;14.00;;;;;;;;5080389;28;45179;-80
2022/04/26 16:25:03;;;;;;;;;16.00;16.00;;;;;;;;5079442;28;45218;-79
2022/04/26 16:27:30;;;;;;;;;15.00;14.33;;;;;;;;5079381;28;45267;-78
2022/04/26 16:29:55;;;;;;;;;15.00;15.00;;;;;;;;5080615;27;45468;-79
2022/04/26 16:32:20;;;;;;;;;13.00;13.00;;;;;;;;5079060;28;45370;-78
2022/04/26 16:34:45;;;;;;;;;13.33;13.33;;;;;;;;5080817;28;45190;-83
2022/04/26 16:37:10;;;;;;;;;18.33;17.00;;;;;;;;5085862;28;45209;-82
2022/04/26 16:39:36;;;;;;;;;16.67;16.33;;;;;;;;5088995;28;45180;-79
2022/04/26 16:42:01;;;;;;;;;13.00;13.00;;;;;;;;5085312;28;45262;-82
2022/04/26 16:44:26;;;;;;;;;13.33;13.33;;;;;;;;5088330;27;45299;-81
2022/04/26 16:46:51;;;;;;;;;20.00;19.67;;;;;;;;5100290;27;45337;-81
2022/04/26 16:49:16;;;;;;;;;15.67;15.00;;;;;;;;5085285;27;45388;-82
2022/04/26 16:51:42;;;;;;;;;18.33;18.00;;;;;;;;5084555;27;45548;-83
2022/04/26 16:54:07;;;;;;;;;21.33;21.33;;;;;;;;5084229;27;45400;-82
2022/04/26 16:56:32;;;;;;;;;20.67;19.00;;;;;;;;5080493;27;45598;-81
2022/04/26 16:58:58;;;;;;;;;17.00;15.67;;;;;;;;5078782;27;46052;-83
2022/04/26 17:01:23;;;;;;;;;19.67;16.67;;;;;;;;5080423;28;45694;-81
2022/04/26 17:03:48;;;;;;;;;15.00;13.00;;;;;;;;5080320;27;45434;-82
2022/04/26 17:06:13;;;;;;;;;15.00;15.00;;;;;;;;5079056;28;45370;-82
2022/04/26 17:08:39;;;;;;;;;19.00;16.67;;;;;;;;5078004;27;47118;-83
2022/04/26 17:13:48;;;;;;;;;19.67;18.67;;;;;;;;5080416;28;45418;-82
2022/04/26 17:16:13;;;;;;;;;15.33;15.33;;;;;;;;5108265;27;45342;-82
2022/04/26 17:18:41;;;;;;;;;21.00;18.67;;;;;;;;5089832;27;45329;-82
2022/04/26 17:21:07;;;;;;;;;15.33;15.33;;;;;;;;5078560;27;47323;-82
2022/04/26 17:23:32;;;;;;;;;17.00;17.00;;;;;;;;5082073;27;45266;-82
2022/04/26 17:25:57;;;;;;;;;14.00;14.00;;;;;;;;5080167;27;45492;-81
2022/04/26 17:28:23;;;;;;;;;22.00;19.33;;;;;;;;5083692;27;46366;-81
2022/04/26 17:30:48;;;;;;;;;17.00;16.33;;;;;;;;5079784;27;45881;-82
2022/04/26 17:33:13;;;;;;;;;22.67;21.33;;;;;;;;5080119;27;45295;-82
2022/04/26 17:35:39;;;;;;;;;21.67;20.00;;;;;;;;5079890;27;45632;-81
2022/04/26 17:38:04;;;;;;;;;22.33;22.33;;;;;;;;5079394;28;45265;-81
2022/04/26 17:40:29;;;;;;;;;19.67;19.67;;;;;;;;5081451;27;46040;-80
2022/04/26 17:42:54;;;;;;;;;18.33;17.00;;;;;;;;5080507;27;45335;-82
2022/04/26 17:45:21;;;;;;;;;21.33;19.33;;;;;;;;5080264;27;45273;-81
2022/04/26 17:47:47;;;;;;;;;21.67;21.67;;;;;;;;5079281;27;45386;-81
2022/04/26 17:50:12;;;;;;;;;19.33;18.00;;;;;;;;5078446;28;47012;-82
2022/04/26 17:56:28;;;;;;;;;22.67;20.67;;;;;;;;5079626;28;45317;-82
2022/04/26 17:58:06;;;;;;;;;20.33;20.33;;;;;;;;5079382;27;45622;-84
2022/04/26 18:00:31;;;;;;;;;19.00;17.67;;;;;;;;5078038;28;47285;-85
2022/04/26 18:02:57;;;;;;;;;20.00;20.00;;;;;;;;5077944;28;45319;-83
2022/04/26 18:05:22;;;;;;;;;21.00;19.67;;;;;;;;5078377;27;45400;-80
2022/04/26 18:07:47;;;;;;;;;23.00;23.00;;;;;;;;5078418;28;47179;-85
2022/04/26 18:10:13;;;;;;;;;24.00;22.67;;;;;;;;5082738;28;47013;-85
2022/04/26 18:12:39;;;;;;;;;25.33;25.33;;;;;;;;5082648;27;45290;-84
2022/04/26 18:15:05;;;;;;;;;22.00;21.67;;;;;;;;5090647;27;45357;-86
2022/04/26 18:17:30;;;;;;;;;18.33;18.33;;;;;;;;5119168;27;45950;-86
2022/04/26 18:19:55;;;;;;;;;24.00;24.00;;;;;;;;5105097;27;47458;-82
2022/04/26 18:22:20;;;;;;;;;23.00;20.00;;;;;;;;5077819;27;45601;-81
2022/04/26 18:24:47;;;;;;;;;23.67;23.67;;;;;;;;5077310;27;45275;-82
2022/04/26 18:27:12;;;;;;;;;23.67;23.67;;;;;;;;5079285;28;45283;-80
2022/04/26 18:29:37;;;;;;;;;26.33;21.67;;;;;;;;5086245;27;47078;-79
2022/04/26 18:32:03;;;;;;;;;24.00;23.00;;;;;;;;5083496;27;45596;-79
2022/04/26 18:34:29;;;;;;;;;22.33;22.33;;;;;;;;5095111;27;45379;-79
2022/04/26 18:36:54;;;;;;;;;22.00;22.00;;;;;;;;5096687;27;45720;-81
2022/04/26 18:39:23;;;;;;;;;24.00;23.33;;;;;;;;5090631;27;45313;-82
2022/04/26 18:41:49;;;;;;;;;25.33;25.33;;;;;;;;5101525;27;45868;-79
2022/04/26 18:44:17;;;;;;;;;26.00;25.67;;;;;;;;5088457;27;45345;-80
2022/04/26 18:46:42;;;;;;;;;21.67;21.67;;;;;;;;5091309;27;45650;-79